sensor_id;sensor_type;location;lat;lon;timestamp;temperature;humidity
37868;DHT22;24011;48.880;9.190;2023-02-04T00:01:28;24.10;36.40
37868;DHT22;24011;48.880;9.190;2023-02-04T00:04:57;24.10;36.40
37868;DHT22;24011;48.880;9.190;2023-02-04T00:08:34;24.10;36.30
37868;DHT22;24011;48.880;9.190;2023-02-04T00:12:04;24.10;36.40
37868;DHT22;24011;48.880;9.190;2023-02-04T00:15:28;24.10;36.40
37868;DHT22;24011;48.880;9.190;2023-02-04T00:18:57;24.10;36.40
37868;DHT22;24011;48.880;9.190;2023-02-04T00:22:22;24.10;36.30
37868;DHT22;24011;48.880;9.190;2023-02-04T00:25:57;24.10;36.40
37868;DHT22;24011;48.880;9.190;2023-02-04T00:29:22;24.10;36.40
37868;DHT22;24011;48.880;9.190;2023-02-04T00:32:52;24.10;36.40
37868;DHT22;24011;48.880;9.190;2023-02-04T00:36:16;24.10;36.40
37868;DHT22;24011;48.880;9.190;2023-02-04T00:39:46;24.10;36.50
37868;DHT22;24011;48.880;9.190;2023-02-04T00:43:14;24.10;36.40
37868;DHT22;24011;48.880;9.190;2023-02-04T00:46:40;24.10;36.40
37868;DHT22;24011;48.880;9.190;2023-02-04T00:49:58;24.10;36.40
37868;DHT22;24011;48.880;9.190;2023-02-04T00:53:10;24.10;36.40
37868;DHT22;24011;48.880;9.190;2023-02-04T00:56:34;24.10;36.50
37868;DHT22;24011;48.880;9.190;2023-02-04T01:00:16;24.10;36.40
37868;DHT22;24011;48.880;9.190;2023-02-04T01:03:38;24.20;36.40
37868;DHT22;24011;48.880;9.190;2023-02-04T01:06:59;24.20;36.40
37868;DHT22;24011;48.880;9.190;2023-02-04T01:10:22;24.20;36.40
37868;DHT22;24011;48.880;9.190;2023-02-04T01:13:52;24.10;36.30
37868;DHT22;24011;48.880;9.190;2023-02-04T01:17:22;24.10;36.40
37868;DHT22;24011;48.880;9.190;2023-02-04T01:20:52;24.10;36.30
37868;DHT22;24011;48.880;9.190;2023-02-04T01:24:10;24.10;36.40
37868;DHT22;24011;48.880;9.190;2023-02-04T01:27:46;24.10;36.40
37868;DHT22;24011;48.880;9.190;2023-02-04T01:31:08;24.10;36.40
37868;DHT22;24011;48.880;9.190;2023-02-04T01:35:02;24.10;36.40
37868;DHT22;24011;48.880;9.190;2023-02-04T01:38:34;24.10;36.40
37868;DHT22;24011;48.880;9.190;2023-02-04T01:42:02;24.10;36.40
37868;DHT22;24011;48.880;9.190;2023-02-04T01:45:34;24.10;36.40
37868;DHT22;24011;48.880;9.190;2023-02-04T01:49:01;24.10;36.40
37868;DHT22;24011;48.880;9.190;2023-02-04T01:52:28;24.10;36.40
37868;DHT22;24011;48.880;9.190;2023-02-04T01:55:59;24.10;36.40
37868;DHT22;24011;48.880;9.190;2023-02-04T01:59:23;24.10;36.40
37868;DHT22;24011;48.880;9.190;2023-02-04T02:02:53;24.10;36.40
37868;DHT22;24011;48.880;9.190;2023-02-04T02:06:17;24.10;36.40
37868;DHT22;24011;48.880;9.190;2023-02-04T02:09:53;24.10;36.40
37868;DHT22;24011;48.880;9.190;2023-02-04T02:13:17;24.10;36.30
37868;DHT22;24011;48.880;9.190;2023-02-04T02:16:47;24.10;36.40
37868;DHT22;24011;48.880;9.190;2023-02-04T02:20:05;24.10;36.40
37868;DHT22;24011;48.880;9.190;2023-02-04T02:23:57;24.10;36.50
37868;DHT22;24011;48.880;9.190;2023-02-04T02:27:22;24.00;36.50
37868;DHT22;24011;48.880;9.190;2023-02-04T02:30:45;24.00;36.60
37868;DHT22;24011;48.880;9.190;2023-02-04T02:34:15;24.00;36.60
37868;DHT22;24011;48.880;9.190;2023-02-04T02:37:35;24.00;36.60
37868;DHT22;24011;48.880;9.190;2023-02-04T02:41:05;24.10;36.50
37868;DHT22;24011;48.880;9.190;2023-02-04T02:44:35;24.10;36.50
37868;DHT22;24011;48.880;9.190;2023-02-04T02:48:15;24.10;36.50
37868;DHT22;24011;48.880;9.190;2023-02-04T02:52:33;24.10;36.40
37868;DHT22;24011;48.880;9.190;2023-02-04T03:16:39;24.10;36.30
37868;DHT22;24011;48.880;9.190;2023-02-04T03:20:02;24.10;36.30
37868;DHT22;24011;48.880;9.190;2023-02-04T03:23:26;24.10;36.40
37868;DHT22;24011;48.880;9.190;2023-02-04T03:26:51;24.10;36.40
37868;DHT22;24011;48.880;9.190;2023-02-04T03:30:15;24.10;36.40
37868;DHT22;24011;48.880;9.190;2023-02-04T05:09:50;24.10;36.40
37868;DHT22;24011;48.880;9.190;2023-02-04T05:13:20;24.10;36.40
37868;DHT22;24011;48.880;9.190;2023-02-04T05:17:02;24.10;36.40
37868;DHT22;24011;48.880;9.190;2023-02-04T05:20:26;24.10;36.40
37868;DHT22;24011;48.880;9.190;2023-02-04T05:23:44;24.00;36.40
37868;DHT22;24011;48.880;9.190;2023-02-04T05:27:50;24.10;36.40
37868;DHT22;24011;48.880;9.190;2023-02-04T05:31:38;24.10;36.40
37868;DHT22;24011;48.880;9.190;2023-02-04T05:35:14;24.10;36.40
37868;DHT22;24011;48.880;9.190;2023-02-04T05:38:50;24.10;36.30
37868;DHT22;24011;48.880;9.190;2023-02-04T05:42:14;24.10;36.30
37868;DHT22;24011;48.880;9.190;2023-02-04T05:46:14;24.10;36.40
37868;DHT22;24011;48.880;9.190;2023-02-04T05:49:44;24.10;36.30
37868;DHT22;24011;48.880;9.190;2023-02-04T05:53:26;24.10;36.40
37868;DHT22;24011;48.880;9.190;2023-02-04T05:56:51;24.00;36.40
37868;DHT22;24011;48.880;9.190;2023-02-04T06:00:14;24.00;36.40
37868;DHT22;24011;48.880;9.190;2023-02-04T06:03:44;24.00;36.40
37868;DHT22;24011;48.880;9.190;2023-02-04T06:07:26;24.00;36.40
37868;DHT22;24011;48.880;9.190;2023-02-04T06:10:57;24.00;36.40
37868;DHT22;24011;48.880;9.190;2023-02-04T06:14:26;24.00;36.40
37868;DHT22;24011;48.880;9.190;2023-02-04T06:17:51;24.10;36.40
37868;DHT22;24011;48.880;9.190;2023-02-04T06:21:33;24.00;36.30
37868;DHT22;24011;48.880;9.190;2023-02-04T06:25:03;24.00;36.40
37868;DHT22;24011;48.880;9.190;2023-02-04T06:28:08;24.00;36.40
37868;DHT22;24011;48.880;9.190;2023-02-04T06:31:15;24.00;36.40
37868;DHT22;24011;48.880;9.190;2023-02-04T06:34:31;24.00;36.40
37868;DHT22;24011;48.880;9.190;2023-02-04T06:38:09;24.00;36.40
37868;DHT22;24011;48.880;9.190;2023-02-04T06:41:32;24.00;36.40
37868;DHT22;24011;48.880;9.190;2023-02-04T06:45:03;24.00;36.40
37868;DHT22;24011;48.880;9.190;2023-02-04T06:48:32;24.00;37.00
37868;DHT22;24011;48.880;9.190;2023-02-04T06:51:57;24.00;36.40
37868;DHT22;24011;48.880;9.190;2023-02-04T06:55:38;24.00;36.40
37868;DHT22;24011;48.880;9.190;2023-02-04T06:58:44;24.00;36.40
37868;DHT22;24011;48.880;9.190;2023-02-04T07:02:10;24.00;36.40
37868;DHT22;24011;48.880;9.190;2023-02-04T07:05:27;24.00;36.40
37868;DHT22;24011;48.880;9.190;2023-02-04T07:08:56;24.00;36.30
37868;DHT22;24011;48.880;9.190;2023-02-04T07:12:27;24.00;36.30
37868;DHT22;24011;48.880;9.190;2023-02-04T07:15:57;24.00;36.30
37868;DHT22;24011;48.880;9.190;2023-02-04T07:19:33;24.00;36.40
37868;DHT22;24011;48.880;9.190;2023-02-04T07:23:19;24.00;36.40
37868;DHT22;24011;48.880;9.190;2023-02-04T07:26:51;24.00;36.40
37868;DHT22;24011;48.880;9.190;2023-02-04T07:35:00;24.00;36.40
37868;DHT22;24011;48.880;9.190;2023-02-04T07:38:24;24.00;36.40
37868;DHT22;24011;48.880;9.190;2023-02-04T07:41:53;24.00;37.00
37868;DHT22;24011;48.880;9.190;2023-02-04T07:45:15;24.00;36.40
37868;DHT22;24011;48.880;9.190;2023-02-04T07:48:17;24.00;36.40
37868;DHT22;24011;48.880;9.190;2023-02-04T07:51:33;24.00;36.40
37868;DHT22;24011;48.880;9.190;2023-02-04T07:55:03;23.90;36.40
37868;DHT22;24011;48.880;9.190;2023-02-04T07:58:23;24.00;36.40
37868;DHT22;24011;48.880;9.190;2023-02-04T08:01:57;24.00;36.40
37868;DHT22;24011;48.880;9.190;2023-02-04T08:05:17;24.00;36.40
37868;DHT22;24011;48.880;9.190;2023-02-04T08:08:45;24.00;36.40
37868;DHT22;24011;48.880;9.190;2023-02-04T08:12:15;24.00;36.40
37868;DHT22;24011;48.880;9.190;2023-02-04T08:15:35;24.00;36.40
37868;DHT22;24011;48.880;9.190;2023-02-04T08:19:03;24.00;36.40
37868;DHT22;24011;48.880;9.190;2023-02-04T08:22:27;24.00;36.40
37868;DHT22;24011;48.880;9.190;2023-02-04T08:25:35;24.00;36.30
37868;DHT22;24011;48.880;9.190;2023-02-04T08:28:42;24.00;36.30
37868;DHT22;24011;48.880;9.190;2023-02-04T08:31:47;24.00;36.40
37868;DHT22;24011;48.880;9.190;2023-02-04T08:34:36;24.00;36.40
37868;DHT22;24011;48.880;9.190;2023-02-04T08:37:48;24.00;36.40
37868;DHT22;24011;48.880;9.190;2023-02-04T08:41:03;24.00;36.40
37868;DHT22;24011;48.880;9.190;2023-02-04T08:44:03;24.10;36.30
37868;DHT22;24011;48.880;9.190;2023-02-04T08:47:18;24.00;36.40
37868;DHT22;24011;48.880;9.190;2023-02-04T08:50:33;24.10;36.30
37868;DHT22;24011;48.880;9.190;2023-02-04T08:53:57;24.10;36.30
37868;DHT22;24011;48.880;9.190;2023-02-04T08:57:33;24.10;36.30
37868;DHT22;24011;48.880;9.190;2023-02-04T09:00:57;24.10;36.20
37868;DHT22;24011;48.880;9.190;2023-02-04T09:04:18;24.10;36.30
37868;DHT22;24011;48.880;9.190;2023-02-04T09:07:36;24.10;36.20
37868;DHT22;24011;48.880;9.190;2023-02-04T09:11:37;24.10;36.20
37868;DHT22;24011;48.880;9.190;2023-02-04T09:22:43;24.20;36.10
37868;DHT22;24011;48.880;9.190;2023-02-04T09:30:12;24.30;36.00
37868;DHT22;24011;48.880;9.190;2023-02-04T09:34:30;24.30;36.00
37868;DHT22;24011;48.880;9.190;2023-02-04T09:38:42;24.30;35.90
37868;DHT22;24011;48.880;9.190;2023-02-04T09:46:38;24.40;35.90
37868;DHT22;24011;48.880;9.190;2023-02-04T10:09:56;24.50;35.60
37868;DHT22;24011;48.880;9.190;2023-02-04T10:17:14;24.50;35.70
37868;DHT22;24011;48.880;9.190;2023-02-04T10:21:15;24.40;35.80
37868;DHT22;24011;48.880;9.190;2023-02-04T10:32:23;24.50;35.60
37868;DHT22;24011;48.880;9.190;2023-02-04T10:36:37;24.50;35.60
37868;DHT22;24011;48.880;9.190;2023-02-04T10:40:40;24.60;35.60
37868;DHT22;24011;48.880;9.190;2023-02-04T10:44:09;24.60;35.70
37868;DHT22;24011;48.880;9.190;2023-02-04T11:03:41;24.70;35.60
37868;DHT22;24011;48.880;9.190;2023-02-04T11:07:37;24.70;35.50
37868;DHT22;24011;48.880;9.190;2023-02-04T11:11:25;24.70;35.50
37868;DHT22;24011;48.880;9.190;2023-02-04T11:22:55;24.70;35.50
37868;DHT22;24011;48.880;9.190;2023-02-04T11:26:37;24.70;35.60
37868;DHT22;24011;48.880;9.190;2023-02-04T11:30:31;24.70;35.60
37868;DHT22;24011;48.880;9.190;2023-02-04T11:34:43;24.70;35.60
37868;DHT22;24011;48.880;9.190;2023-02-04T11:38:55;24.70;35.70
37868;DHT22;24011;48.880;9.190;2023-02-04T11:42:49;24.60;35.70
37868;DHT22;24011;48.880;9.190;2023-02-04T11:46:43;24.60;35.70
37868;DHT22;24011;48.880;9.190;2023-02-04T11:50:37;24.70;35.80
37868;DHT22;24011;48.880;9.190;2023-02-04T11:54:31;24.70;35.70
37868;DHT22;24011;48.880;9.190;2023-02-04T11:58:11;24.80;35.70
37868;DHT22;24011;48.880;9.190;2023-02-04T12:02:14;24.80;35.60
37868;DHT22;24011;48.880;9.190;2023-02-04T12:05:50;24.80;35.60
37868;DHT22;24011;48.880;9.190;2023-02-04T12:37:38;24.90;35.30
37868;DHT22;24011;48.880;9.190;2023-02-04T12:41:44;24.90;35.30
37868;DHT22;24011;48.880;9.190;2023-02-04T12:45:56;24.80;35.30
37868;DHT22;24011;48.880;9.190;2023-02-04T12:50:02;24.80;35.30
37868;DHT22;24011;48.880;9.190;2023-02-04T12:53:56;24.90;35.30
37868;DHT22;24011;48.880;9.190;2023-02-04T12:57:38;24.80;35.30
37868;DHT22;24011;48.880;9.190;2023-02-04T13:01:45;24.90;35.20
37868;DHT22;24011;48.880;9.190;2023-02-04T13:05:44;24.90;35.20
37868;DHT22;24011;48.880;9.190;2023-02-04T13:09:30;24.90;35.20
37868;DHT22;24011;48.880;9.190;2023-02-04T13:13:50;24.90;35.20
37868;DHT22;24011;48.880;9.190;2023-02-04T13:18:08;24.90;35.10
37868;DHT22;24011;48.880;9.190;2023-02-04T13:22:08;24.90;35.20
37868;DHT22;24011;48.880;9.190;2023-02-04T13:25:48;24.90;35.10
37868;DHT22;24011;48.880;9.190;2023-02-04T13:29:20;24.90;35.20
37868;DHT22;24011;48.880;9.190;2023-02-04T13:32:46;24.90;35.20
37868;DHT22;24011;48.880;9.190;2023-02-04T13:36:08;24.90;35.20
37868;DHT22;24011;48.880;9.190;2023-02-04T13:39:38;24.90;35.20
37868;DHT22;24011;48.880;9.190;2023-02-04T13:43:20;24.90;35.20
37868;DHT22;24011;48.880;9.190;2023-02-04T13:46:48;24.90;35.20
37868;DHT22;24011;48.880;9.190;2023-02-04T13:50:20;24.80;35.20
37868;DHT22;24011;48.880;9.190;2023-02-04T13:53:48;24.90;35.30
37868;DHT22;24011;48.880;9.190;2023-02-04T13:57:24;24.80;35.20
37868;DHT22;24011;48.880;9.190;2023-02-04T14:00:56;24.90;35.30
37868;DHT22;24011;48.880;9.190;2023-02-04T14:04:20;24.80;35.20
37868;DHT22;24011;48.880;9.190;2023-02-04T14:07:47;24.80;35.30
37868;DHT22;24011;48.880;9.190;2023-02-04T14:11:08;24.80;35.30
37868;DHT22;24011;48.880;9.190;2023-02-04T14:14:38;24.90;35.30
37868;DHT22;24011;48.880;9.190;2023-02-04T14:18:18;24.80;35.30
37868;DHT22;24011;48.880;9.190;2023-02-04T14:21:38;24.80;35.30
37868;DHT22;24011;48.880;9.190;2023-02-04T14:25:02;24.80;35.30
37868;DHT22;24011;48.880;9.190;2023-02-04T14:28:20;24.80;35.30
37868;DHT22;24011;48.880;9.190;2023-02-04T14:31:42;24.80;35.20
37868;DHT22;24011;48.880;9.190;2023-02-04T14:35:18;24.80;35.30
37868;DHT22;24011;48.880;9.190;2023-02-04T14:38:48;24.90;35.20
37868;DHT22;24011;48.880;9.190;2023-02-04T14:42:15;24.80;35.20
37868;DHT22;24011;48.880;9.190;2023-02-04T14:45:31;24.80;35.20
37868;DHT22;24011;48.880;9.190;2023-02-04T14:48:44;24.80;35.30
37868;DHT22;24011;48.880;9.190;2023-02-04T14:51:51;24.80;35.30
37868;DHT22;24011;48.880;9.190;2023-02-04T14:54:55;24.80;35.20
37868;DHT22;24011;48.880;9.190;2023-02-04T14:58:07;24.90;35.20
37868;DHT22;24011;48.880;9.190;2023-02-04T15:01:15;24.90;35.00
37868;DHT22;24011;48.880;9.190;2023-02-04T15:04:25;24.90;35.00
37868;DHT22;24011;48.880;9.190;2023-02-04T15:07:37;24.90;35.10
37868;DHT22;24011;48.880;9.190;2023-02-04T15:10:37;24.90;35.10
37868;DHT22;24011;48.880;9.190;2023-02-04T15:13:43;24.90;35.20
37868;DHT22;24011;48.880;9.190;2023-02-04T15:16:49;24.90;35.20
37868;DHT22;24011;48.880;9.190;2023-02-04T15:19:55;24.90;35.20
37868;DHT22;24011;48.880;9.190;2023-02-04T15:23:13;24.90;35.20
37868;DHT22;24011;48.880;9.190;2023-02-04T15:26:21;24.80;35.20
37868;DHT22;24011;48.880;9.190;2023-02-04T15:29:25;24.80;35.30
37868;DHT22;24011;48.880;9.190;2023-02-04T15:32:37;24.80;35.30
37868;DHT22;24011;48.880;9.190;2023-02-04T15:35:49;24.80;35.30
37868;DHT22;24011;48.880;9.190;2023-02-04T15:38:55;24.70;35.30
37868;DHT22;24011;48.880;9.190;2023-02-04T15:42:02;24.80;35.40
37868;DHT22;24011;48.880;9.190;2023-02-04T15:45:14;24.70;35.40
37868;DHT22;24011;48.880;9.190;2023-02-04T15:48:20;24.70;35.40
37868;DHT22;24011;48.880;9.190;2023-02-04T15:51:32;24.70;35.40
37868;DHT22;24011;48.880;9.190;2023-02-04T15:54:44;24.70;35.50
37868;DHT22;24011;48.880;9.190;2023-02-04T15:57:45;24.70;35.50
37868;DHT22;24011;48.880;9.190;2023-02-04T16:00:50;24.70;35.50
37868;DHT22;24011;48.880;9.190;2023-02-04T16:03:57;24.70;35.40
37868;DHT22;24011;48.880;9.190;2023-02-04T16:07:02;24.60;35.50
37868;DHT22;24011;48.880;9.190;2023-02-04T16:10:14;24.70;35.50
37868;DHT22;24011;48.880;9.190;2023-02-04T16:13:25;24.70;35.50
37868;DHT22;24011;48.880;9.190;2023-02-04T16:16:32;24.60;35.50
37868;DHT22;24011;48.880;9.190;2023-02-04T16:19:44;24.60;35.50
37868;DHT22;24011;48.880;9.190;2023-02-04T16:23:13;24.60;35.50
37868;DHT22;24011;48.880;9.190;2023-02-04T16:27:26;24.60;35.60
37868;DHT22;24011;48.880;9.190;2023-02-04T16:30:50;24.60;35.60
37868;DHT22;24011;48.880;9.190;2023-02-04T16:34:38;24.60;35.60
37868;DHT22;24011;48.880;9.190;2023-02-04T16:38:02;24.50;35.60
37868;DHT22;24011;48.880;9.190;2023-02-04T16:41:56;24.50;35.60
37868;DHT22;24011;48.880;9.190;2023-02-04T16:45:52;24.50;35.60
37868;DHT22;24011;48.880;9.190;2023-02-04T16:49:50;24.50;35.60
37868;DHT22;24011;48.880;9.190;2023-02-04T16:52:50;24.50;35.60
37868;DHT22;24011;48.880;9.190;2023-02-04T16:55:56;24.40;35.60
37868;DHT22;24011;48.880;9.190;2023-02-04T16:58:59;24.50;35.70
37868;DHT22;24011;48.880;9.190;2023-02-04T17:02:14;24.50;35.70
37868;DHT22;24011;48.880;9.190;2023-02-04T17:05:20;24.40;35.70
37868;DHT22;24011;48.880;9.190;2023-02-04T17:08:26;24.40;35.80
37868;DHT22;24011;48.880;9.190;2023-02-04T17:11:32;24.40;35.80
37868;DHT22;24011;48.880;9.190;2023-02-04T17:14:36;24.40;35.80
37868;DHT22;24011;48.880;9.190;2023-02-04T17:17:38;24.40;35.90
37868;DHT22;24011;48.880;9.190;2023-02-04T17:20:44;24.40;35.90
37868;DHT22;24011;48.880;9.190;2023-02-04T17:23:44;24.40;35.80
37868;DHT22;24011;48.880;9.190;2023-02-04T17:26:56;24.40;35.80
37868;DHT22;24011;48.880;9.190;2023-02-04T17:30:15;24.40;35.80
37868;DHT22;24011;48.880;9.190;2023-02-04T17:34:03;24.40;35.80
37868;DHT22;24011;48.880;9.190;2023-02-04T17:37:42;24.40;35.80
37868;DHT22;24011;48.880;9.190;2023-02-04T17:41:21;24.30;35.80
37868;DHT22;24011;48.880;9.190;2023-02-04T17:44:33;24.30;35.90
37868;DHT22;24011;48.880;9.190;2023-02-04T17:48:03;24.30;35.90
37868;DHT22;24011;48.880;9.190;2023-02-04T17:51:33;24.30;35.90
37868;DHT22;24011;48.880;9.190;2023-02-04T17:55:01;24.30;35.90
37868;DHT22;24011;48.880;9.190;2023-02-04T17:58:06;24.20;35.90
37868;DHT22;24011;48.880;9.190;2023-02-04T18:01:36;24.20;35.90
37868;DHT22;24011;48.880;9.190;2023-02-04T18:05:07;24.30;36.00
37868;DHT22;24011;48.880;9.190;2023-02-04T18:08:51;24.20;36.00
37868;DHT22;24011;48.880;9.190;2023-02-04T18:12:13;24.20;35.90
37868;DHT22;24011;48.880;9.190;2023-02-04T18:15:39;24.20;35.90
37868;DHT22;24011;48.880;9.190;2023-02-04T18:18:55;24.20;36.00
37868;DHT22;24011;48.880;9.190;2023-02-04T18:22:24;24.20;35.90
37868;DHT22;24011;48.880;9.190;2023-02-04T18:25:54;24.20;36.00
37868;DHT22;24011;48.880;9.190;2023-02-04T18:29:34;24.20;36.00
37868;DHT22;24011;48.880;9.190;2023-02-04T18:32:55;24.20;36.00
37868;DHT22;24011;48.880;9.190;2023-02-04T18:36:24;24.20;36.00
37868;DHT22;24011;48.880;9.190;2023-02-04T18:44:16;24.10;36.00
37868;DHT22;24011;48.880;9.190;2023-02-04T19:04:31;24.10;36.00
37868;DHT22;24011;48.880;9.190;2023-02-04T19:08:55;24.10;36.00
37868;DHT22;24011;48.880;9.190;2023-02-04T19:13:14;24.10;36.00
37868;DHT22;24011;48.880;9.190;2023-02-04T19:17:02;24.10;36.00
37868;DHT22;24011;48.880;9.190;2023-02-04T19:33:11;24.00;36.10
37868;DHT22;24011;48.880;9.190;2023-02-04T19:36:37;24.00;36.10
37868;DHT22;24011;48.880;9.190;2023-02-04T19:40:13;24.00;36.10
37868;DHT22;24011;48.880;9.190;2023-02-04T19:43:46;24.00;36.20
37868;DHT22;24011;48.880;9.190;2023-02-04T19:50:38;24.00;36.10
37868;DHT22;24011;48.880;9.190;2023-02-04T19:53:43;24.00;36.20
37868;DHT22;24011;48.880;9.190;2023-02-04T19:56:52;24.00;36.20
37868;DHT22;24011;48.880;9.190;2023-02-04T19:59:58;24.00;36.10
37868;DHT22;24011;48.880;9.190;2023-02-04T20:03:10;24.00;36.20
37868;DHT22;24011;48.880;9.190;2023-02-04T20:06:31;23.90;36.20
37868;DHT22;24011;48.880;9.190;2023-02-04T20:09:38;23.90;36.20
37868;DHT22;24011;48.880;9.190;2023-02-04T20:12:43;24.00;36.10
37868;DHT22;24011;48.880;9.190;2023-02-04T20:15:50;24.00;36.20
37868;DHT22;24011;48.880;9.190;2023-02-04T20:18:58;24.00;36.20
37868;DHT22;24011;48.880;9.190;2023-02-04T20:22:43;23.90;36.20
37868;DHT22;24011;48.880;9.190;2023-02-04T20:25:50;23.90;36.20
37868;DHT22;24011;48.880;9.190;2023-02-04T20:28:56;23.90;36.20
37868;DHT22;24011;48.880;9.190;2023-02-04T20:32:07;23.90;36.20
37868;DHT22;24011;48.880;9.190;2023-02-04T20:38:38;23.90;36.30
37868;DHT22;24011;48.880;9.190;2023-02-04T20:41:43;23.90;36.20
37868;DHT22;24011;48.880;9.190;2023-02-04T20:44:50;23.90;36.10
37868;DHT22;24011;48.880;9.190;2023-02-04T20:47:57;23.90;36.20
37868;DHT22;24011;48.880;9.190;2023-02-04T20:51:04;23.90;36.20
37868;DHT22;24011;48.880;9.190;2023-02-04T20:54:40;23.90;36.20
37868;DHT22;24011;48.880;9.190;2023-02-04T20:58:23;23.90;36.20
37868;DHT22;24011;48.880;9.190;2023-02-04T21:01:44;23.90;36.20
37868;DHT22;24011;48.880;9.190;2023-02-04T21:05:20;23.90;36.20
37868;DHT22;24011;48.880;9.190;2023-02-04T21:08:44;23.90;36.20
37868;DHT22;24011;48.880;9.190;2023-02-04T21:12:16;23.80;36.10
37868;DHT22;24011;48.880;9.190;2023-02-04T21:15:38;23.90;36.20
37868;DHT22;24011;48.880;9.190;2023-02-04T21:19:01;23.80;36.10
37868;DHT22;24011;48.880;9.190;2023-02-04T21:22:28;23.80;36.10
37868;DHT22;24011;48.880;9.190;2023-02-04T21:25:51;23.90;36.20
37868;DHT22;24011;48.880;9.190;2023-02-04T21:29:16;23.80;36.20
37868;DHT22;24011;48.880;9.190;2023-02-04T21:32:46;23.80;36.10
37868;DHT22;24011;48.880;9.190;2023-02-04T21:36:04;23.80;36.20
37868;DHT22;24011;48.880;9.190;2023-02-04T21:39:39;23.80;36.10
37868;DHT22;24011;48.880;9.190;2023-02-04T21:43:02;23.80;36.20
37868;DHT22;24011;48.880;9.190;2023-02-04T21:46:39;23.80;36.30
37868;DHT22;24011;48.880;9.190;2023-02-04T21:50:02;23.80;36.20
37868;DHT22;24011;48.880;9.190;2023-02-04T21:53:33;23.80;36.30
37868;DHT22;24011;48.880;9.190;2023-02-04T21:56:51;23.80;36.20
37868;DHT22;24011;48.880;9.190;2023-02-04T22:00:21;23.80;36.20
37868;DHT22;24011;48.880;9.190;2023-02-04T22:04:03;23.80;36.20
37868;DHT22;24011;48.880;9.190;2023-02-04T22:07:33;23.80;36.90
37868;DHT22;24011;48.880;9.190;2023-02-04T22:10:59;23.80;36.20
37868;DHT22;24011;48.880;9.190;2023-02-04T22:14:33;23.80;36.20
37868;DHT22;24011;48.880;9.190;2023-02-04T22:17:59;23.70;36.20
37868;DHT22;24011;48.880;9.190;2023-02-04T22:21:35;23.80;36.30
37868;DHT22;24011;48.880;9.190;2023-02-04T22:24:59;23.70;36.30
37868;DHT22;24011;48.880;9.190;2023-02-04T22:28:23;23.80;36.30
37868;DHT22;24011;48.880;9.190;2023-02-04T22:31:45;23.80;36.20
37868;DHT22;24011;48.880;9.190;2023-02-04T22:35:11;23.70;36.20
37868;DHT22;24011;48.880;9.190;2023-02-04T22:38:41;23.70;36.20
37868;DHT22;24011;48.880;9.190;2023-02-04T22:42:11;23.70;36.20
37868;DHT22;24011;48.880;9.190;2023-02-04T22:45:35;23.70;36.20
37868;DHT22;24011;48.880;9.190;2023-02-04T22:49:04;23.70;36.30
37868;DHT22;24011;48.880;9.190;2023-02-04T22:52:29;23.70;36.20
37868;DHT22;24011;48.880;9.190;2023-02-04T22:56:21;23.70;36.20
37868;DHT22;24011;48.880;9.190;2023-02-04T22:59:45;23.70;36.30
37868;DHT22;24011;48.880;9.190;2023-02-04T23:03:11;23.70;36.30
37868;DHT22;24011;48.880;9.190;2023-02-04T23:06:35;23.70;36.30
37868;DHT22;24011;48.880;9.190;2023-02-04T23:10:05;23.70;36.30
37868;DHT22;24011;48.880;9.190;2023-02-04T23:13:35;23.60;36.20
37868;DHT22;24011;48.880;9.190;2023-02-04T23:17:05;23.60;36.20
37868;DHT22;24011;48.880;9.190;2023-02-04T23:20:40;23.70;36.30
37868;DHT22;24011;48.880;9.190;2023-02-04T23:24:05;23.70;36.20
37868;DHT22;24011;48.880;9.190;2023-02-04T23:27:40;23.70;36.20
37868;DHT22;24011;48.880;9.190;2023-02-04T23:31:11;23.70;36.20
37868;DHT22;24011;48.880;9.190;2023-02-04T23:35:46;23.70;36.10
37868;DHT22;24011;48.880;9.190;2023-02-04T23:40:06;23.70;36.20
37868;DHT22;24011;48.880;9.190;2023-02-04T23:44:22;23.70;36.20
